Time;durP1;ratioP1;P1;durP2;ratioP2;P2;SDS_P1;SDS_P2;PMS_P1;PMS_P2;Temp;Humidity;BMP_temperature;BMP_pressure;BME280_temperature;BME280_humidity;BME280_pressure;Samples;Min_cycle;Max_cycle;Signal;HPM_P1;HPM_P2
2023/12/12 00:00:28;;;;;;;64.03;33.05;;;;;;;3.40;100.00;98732.50;1802207;77;25454;-59
2023/12/12 00:02:54;;;;;;;63.68;35.28;;;;;;;3.40;100.00;98738.40;1788090;78;25816;-59
2023/12/12 00:05:20;;;;;;;62.90;33.58;;;;;;;3.40;100.00;98733.05;1801147;78;25541;-57
2023/12/12 00:07:50;;;;;;;64.58;33.55;;;;;;;3.40;100.00;98735.73;1804154;78;27297;-58
2023/12/12 00:10:20;;;;;;;;;;;;;;;3.40;100.00;98743.75;1791506;77;25530;-58
2023/12/12 00:12:48;;;;;;;55.38;30.85;;;;;;;3.39;100.00;98736.28;1781441;78;25772;-59
2023/12/12 00:15:16;;;;;;;;;;;;;;;3.38;100.00;98742.70;1799799;79;26406;-59
2023/12/12 00:17:45;;;;;;;55.48;31.17;;;;;;;3.38;100.00;98745.94;1797693;78;25857;-58
2023/12/12 00:20:12;;;;;;;60.52;34.23;;;;;;;3.35;100.00;98741.44;1804063;77;28343;-56
2023/12/12 00:22:42;;;;;;;57.23;33.13;;;;;;;3.36;100.00;98744.89;1793565;78;25439;-57
2023/12/12 00:25:09;;;;;;;65.35;33.45;;;;;;;3.35;100.00;98747.30;1780517;79;25806;-57
2023/12/12 00:27:36;;;;;;;61.37;34.00;;;;;;;3.33;100.00;98743.59;1795776;78;26063;-59
2023/12/12 00:30:07;;;;;;;64.42;34.50;;;;;;;3.33;100.00;98754.84;1799444;78;25517;-58
2023/12/12 00:32:34;;;;;;;66.67;33.35;;;;;;;3.31;100.00;98749.78;1797068;78;28023;-59
2023/12/12 00:35:07;;;;;;;;;;;;;;;3.32;100.00;98747.90;1792248;78;25788;-58
2023/12/12 00:37:33;;;;;;;54.25;31.40;;;;;;;3.33;100.00;98750.83;1753740;79;25549;-58
2023/12/12 00:40:00;;;;;;;65.15;32.70;;;;;;;3.32;100.00;98758.06;1793583;78;26243;-58
2023/12/12 00:42:27;;;;;;;60.35;32.90;;;;;;;3.32;100.00;98751.91;1799802;78;25654;-58
2023/12/12 00:44:56;;;;;;;62.25;34.13;;;;;;;3.33;100.00;98753.50;1798192;78;27329;-58
2023/12/12 00:47:23;;;;;;;60.28;32.83;;;;;;;3.34;100.00;98759.89;1771520;78;25807;-57
2023/12/12 00:49:54;;;;;;;58.50;32.53;;;;;;;3.34;100.00;98761.22;1784776;78;25358;-59
2023/12/12 00:52:23;;;;;;;62.58;33.58;;;;;;;3.34;100.00;98757.22;1811687;78;25612;-58
2023/12/12 00:54:50;;;;;;;67.80;39.33;;;;;;;3.34;100.00;98761.78;1799153;78;25428;-62
2023/12/12 00:57:21;;;;;;;59.42;33.63;;;;;;;3.36;100.00;98765.72;1803305;77;27915;-60
2023/12/12 00:59:51;;;;;;;60.25;33.15;;;;;;;3.41;100.00;98768.06;1812791;79;25822;-59
2023/12/12 01:02:24;;;;;;;;;;;;;;;3.44;100.00;98764.77;1805343;78;26007;-59
2023/12/12 01:04:53;;;;;;;57.40;30.90;;;;;;;3.44;100.00;98762.91;1814182;78;25684;-59
2023/12/12 01:07:20;;;;;;;58.90;31.90;;;;;;;3.44;100.00;98766.11;1803287;78;25324;-60
2023/12/12 01:09:47;;;;;;;57.70;31.40;;;;;;;3.44;100.00;98762.91;1801261;78;27890;-60
2023/12/12 01:12:14;;;;;;;55.78;32.17;;;;;;;3.44;100.00;98762.91;1803456;79;25661;-60
2023/12/12 01:14:41;;;;;;;53.08;31.30;;;;;;;3.46;100.00;98770.63;1798637;77;25786;-60
2023/12/12 01:17:08;;;;;;;58.00;30.60;;;;;;;3.46;100.00;98764.73;1796887;77;26353;-59
2023/12/12 01:19:35;;;;;;;56.30;32.58;;;;;;;3.46;100.00;98770.08;1804549;79;25668;-59
2023/12/12 01:22:05;;;;;;;57.48;32.15;;;;;;;3.46;100.00;98776.76;1799193;78;28322;-58
2023/12/12 01:24:32;;;;;;;60.10;32.40;;;;;;;3.46;100.00;98782.11;1802810;78;25819;-59
2023/12/12 01:27:03;;;;;;;60.30;31.05;;;;;;;3.47;100.00;98776.98;1799622;77;25435;-59
2023/12/12 01:29:29;;;;;;;58.38;30.20;;;;;;;3.49;100.00;98783.38;1800867;77;25813;-59
2023/12/12 01:31:56;;;;;;;61.90;31.80;;;;;;;3.49;100.00;98788.20;1798550;78;25391;-59
2023/12/12 01:34:23;;;;;;;59.42;31.07;;;;;;;3.49;100.00;98790.06;1802945;78;28100;-61
2023/12/12 01:36:54;;;;;;;;;;;;;;;3.49;100.00;98787.39;1804787;77;25831;-59
2023/12/12 01:39:25;;;;;;;58.98;31.27;;;;;;;3.50;100.00;98791.10;1803764;79;25455;-59
2023/12/12 01:41:54;;;;;;;50.00;28.65;;;;;;;3.49;100.00;98789.53;1803000;78;26333;-59
2023/12/12 01:44:22;;;;;;;58.13;29.15;;;;;;;3.49;100.00;98798.89;1796906;77;25470;-60
2023/12/12 01:46:52;;;;;;;54.98;29.02;;;;;;;3.50;100.00;98794.33;1802810;78;27707;-60
2023/12/12 01:49:22;;;;;;;53.50;28.90;;;;;;;3.50;100.00;98795.11;1804725;79;26366;-58
2023/12/12 01:51:51;;;;;;;56.00;29.35;;;;;;;3.51;100.00;98791.36;1803676;79;25497;-58
2023/12/12 01:54:21;;;;;;;53.52;29.45;;;;;;;3.52;100.00;98792.95;1800033;78;32367;-59
2023/12/12 01:56:51;;;;;;;56.77;29.18;;;;;;;3.53;100.00;98792.40;1790695;78;25794;-61
2023/12/12 01:59:22;;;;;;;52.85;28.25;;;;;;;3.54;100.00;98799.31;1795624;78;28314;-59
2023/12/12 02:01:52;;;;;;;51.85;28.65;;;;;;;3.55;100.00;98796.34;1797925;78;25812;-57
2023/12/12 02:04:20;;;;;;;52.90;30.20;;;;;;;3.55;100.00;98800.35;1804208;78;25763;-59
2023/12/12 02:06:51;;;;;;;50.35;28.10;;;;;;;3.57;100.00;98805.96;1803653;77;25620;-56
2023/12/12 02:09:20;;;;;;;59.35;29.27;;;;;;;3.57;100.00;98808.08;1799546;78;25764;-59
2023/12/12 02:11:47;;;;;;;51.18;28.05;;;;;;;3.58;100.00;98807.00;1803339;79;27296;-54
2023/12/12 02:14:16;;;;;;;47.40;27.95;;;;;;;3.59;100.00;98804.55;1791859;78;25437;-59
2023/12/12 02:16:45;;;;;;;;;;;;;;;3.60;100.00;98809.38;1804617;77;25399;-57
2023/12/12 02:19:17;;;;;;;51.50;26.80;;;;;;;3.62;100.00;98816.00;1803078;78;25611;-57
2023/12/12 02:21:47;;;;;;;55.98;28.38;;;;;;;3.63;100.00;98818.93;1803553;78;25861;-60
2023/12/12 02:24:14;;;;;;;53.55;27.45;;;;;;;3.62;100.00;98818.67;1800381;78;28017;-59
2023/12/12 02:26:41;;;;;;;50.55;27.90;;;;;;;3.63;100.00;98821.60;1796958;77;25634;-58
2023/12/12 02:29:11;;;;;;;49.30;27.32;;;;;;;3.64;100.00;98822.39;1781732;80;25799;-60
2023/12/12 02:31:41;;;;;;;54.33;27.77;;;;;;;3.64;100.00;98820.50;1798122;79;26159;-60
2023/12/12 02:34:12;;;;;;;50.78;27.70;;;;;;;3.65;100.00;98817.30;1802619;78;25570;-57
2023/12/12 02:36:43;;;;;;;55.40;28.15;;;;;;;3.67;100.00;98817.78;1798362;78;28150;-59
2023/12/12 02:39:11;;;;;;;50.63;27.80;;;;;;;3.66;100.00;98825.02;1780736;78;25683;-58
2023/12/12 02:41:41;;;;;;;44.00;25.48;;;;;;;3.66;100.00;98817.00;1803005;77;25777;-59
2023/12/12 02:44:10;;;;;;;51.05;26.95;;;;;;;3.66;100.00;98818.34;1799117;78;26543;-58
2023/12/12 02:46:41;;;;;;;45.85;26.40;;;;;;;3.68;100.00;98819.37;1803451;78;25444;-59
2023/12/12 02:49:11;;;;;;;48.55;25.80;;;;;;;3.67;100.00;98820.45;1800084;77;27195;-56
2023/12/12 02:51:37;;;;;;;50.30;27.13;;;;;;;3.69;100.00;98828.97;1800763;78;25996;-58
2023/12/12 02:54:04;;;;;;;51.70;26.77;;;;;;;3.68;100.00;98821.50;1803061;78;25489;-58
2023/12/12 02:56:34;;;;;;;51.90;25.70;;;;;;;3.69;100.00;98823.06;1766261;78;25681;-59
2023/12/12 02:59:05;;;;;;;50.00;25.48;;;;;;;3.68;100.00;98824.73;1794242;77;25610;-59
2023/12/12 03:01:34;;;;;;;50.10;26.62;;;;;;;3.68;100.00;98824.73;1791566;77;27371;-59
2023/12/12 03:04:04;;;;;;;48.68;26.50;;;;;;;3.68;100.00;98825.51;1771898;79;25731;-57
2023/12/12 03:06:31;;;;;;;45.98;25.08;;;;;;;3.69;100.00;98831.64;1801376;78;25898;-58
2023/12/12 03:09:00;;;;;;;48.38;25.37;;;;;;;3.69;100.00;98831.64;1750715;79;25830;-57
2023/12/12 03:11:27;;;;;;;;;;;;;;;3.71;100.00;98838.29;1785878;79;25549;-57
2023/12/12 03:13:59;;;;;;;44.88;23.73;;;;;;;3.72;100.00;98843.08;1796032;77;27725;-58
2023/12/12 03:16:29;;;;;;;48.20;26.97;;;;;;;3.73;100.00;98850.03;1793130;78;25415;-58
2023/12/12 03:18:59;;;;;;;46.73;25.55;;;;;;;3.72;100.00;98849.77;1770497;80;25547;-55
2023/12/12 03:21:28;;;;;;;54.03;25.12;;;;;;;3.73;100.00;98852.70;1731078;81;25848;-57
2023/12/12 03:23:59;;;;;;;45.43;23.70;;;;;;;3.73;100.00;98856.72;1727631;81;25455;-57
2023/12/12 03:26:26;;;;;;;48.87;24.07;;;;;;;3.73;100.00;98856.72;1753278;81;28340;-56
2023/12/12 03:28:53;;;;;;;47.25;25.77;;;;;;;3.76;100.00;98862.00;1786114;79;25815;-58
2023/12/12 03:31:25;;;;;;;48.87;24.63;;;;;;;3.76;100.00;98857.98;1779901;80;25429;-57
2023/12/12 03:33:52;;;;;;;51.15;26.62;;;;;;;3.77;100.00;98854.23;1779341;80;25931;-55
2023/12/12 03:36:18;;;;;;;53.17;25.45;;;;;;;3.78;100.00;98853.13;1751856;80;25448;-55
2023/12/12 03:38:45;;;;;;;55.95;25.48;;;;;;;3.78;100.00;98861.96;1776846;80;27484;-56
2023/12/12 03:41:16;;;;;;;45.70;24.52;;;;;;;3.78;100.00;98863.30;1783862;80;25578;-58
2023/12/12 03:43:46;;;;;;;51.68;25.40;;;;;;;3.81;100.00;98861.89;1774044;79;25670;-58
2023/12/12 03:46:14;;;;;;;;;;;;;;;3.80;100.00;98858.44;1753191;80;26629;-55
2023/12/12 03:48:45;;;;;;;47.38;23.87;;;;;;;3.81;100.00;98861.89;1778228;80;25861;-58
2023/12/12 03:51:12;;;;;;;55.95;25.10;;;;;;;3.81;100.00;98869.92;1782235;80;28026;-57
2023/12/12 03:53:42;;;;;;;51.80;26.45;;;;;;;3.81;100.00;98868.03;1781470;79;25407;-57
2023/12/12 03:56:12;;;;;;;53.08;25.25;;;;;;;3.84;100.00;98872.00;1783932;79;25789;-57
2023/12/12 03:58:42;;;;;;;56.68;26.12;;;;;;;3.84;100.00;98874.13;1752096;80;25746;-57
2023/12/12 04:01:09;;;;;;;53.95;26.35;;;;;;;3.87;100.00;98874.09;1785831;79;25784;-56
2023/12/12 04:03:40;;;;;;;51.92;26.33;;;;;;;3.86;100.00;98877.84;1783914;79;27486;-58
2023/12/12 04:06:08;;;;;;;58.58;26.70;;;;;;;3.88;100.00;98882.34;1775417;80;25501;-58
2023/12/12 04:08:37;;;;;;;53.17;25.50;;;;;;;3.89;100.00;98877.25;1780120;80;25798;-58
2023/12/12 04:11:08;;;;;;;56.23;24.45;;;;;;;3.91;100.00;98883.09;1792834;79;25924;-57
2023/12/12 04:13:37;;;;;;;61.35;25.23;;;;;;;3.91;100.00;98881.75;1757300;79;25399;-55
2023/12/12 04:16:08;;;;;;;62.13;26.02;;;;;;;3.91;100.00;98880.41;1791001;78;28113;-57
2023/12/12 04:18:35;;;;;;;53.45;25.92;;;;;;;3.90;100.00;98883.64;1784869;78;25471;-55
2023/12/12 04:23:56;;;;;;;54.45;23.98;;;;;;;3.91;100.00;98885.77;1682983;84;25925;-56
2023/12/12 04:26:29;;;;;;;68.35;26.62;;;;;;;3.89;100.00;98883.38;1661029;84;25680;-57
2023/12/12 04:28:58;;;;;;;56.08;25.02;;;;;;;3.89;100.00;98886.05;1683163;84;27943;-57
2023/12/12 04:31:28;;;;;;;80.67;26.90;;;;;;;3.90;100.00;98890.88;1680167;84;25766;-56
2023/12/12 04:33:57;;;;;;;;;;;;;;;3.89;100.00;98891.41;1660003;84;25533;-57
2023/12/12 04:36:23;;;;;;;56.85;26.07;;;;;;;3.91;100.00;98892.45;1679916;84;26103;-56
2023/12/12 04:38:54;;;;;;;67.53;25.25;;;;;;;3.90;100.00;98888.20;1681998;84;25510;-57
2023/12/12 04:41:23;;;;;;;64.77;26.45;;;;;;;3.92;100.00;98898.06;1681918;84;27544;-58
2023/12/12 04:43:53;;;;;;;76.45;26.52;;;;;;;3.93;100.00;98892.94;1678858;84;25891;-56
2023/12/12 04:46:22;;;;;;;64.87;24.43;;;;;;;3.91;100.00;98895.91;1681885;84;25569;-57
2023/12/12 04:48:51;;;;;;;;;;;;;;;3.91;100.00;98900.48;1682197;84;25982;-57
2023/12/12 04:51:21;;;;;;;55.52;22.87;;;;;;;3.91;100.00;98902.59;1658227;85;25728;-57
2023/12/12 04:53:50;;;;;;;79.05;26.05;;;;;;;3.91;100.00;98907.95;1683083;84;27723;-56
2023/12/12 04:56:18;;;;;;;49.93;23.12;;;;;;;3.91;100.00;98906.61;1718663;81;25557;-57
2023/12/12 04:58:49;;;;;;;72.63;25.47;;;;;;;3.92;100.00;98906.09;1745704;81;25577;-55
2023/12/12 05:01:20;;;;;;;65.08;24.95;;;;;;;3.92;100.00;98910.09;1769914;79;25697;-58
2023/12/12 05:03:49;;;;;;;58.92;23.67;;;;;;;3.91;100.00;98909.84;1787223;78;25430;-57
2023/12/12 05:06:19;;;;;;;65.28;24.20;;;;;;;3.91;100.00;98908.50;1785632;78;28321;-57
2023/12/12 05:08:49;;;;;;;64.97;26.57;;;;;;;3.90;100.00;98909.05;1791382;78;25830;-58
2023/12/12 05:11:15;;;;;;;69.90;24.80;;;;;;;3.90;100.00;98916.30;1789367;78;25763;-58
2023/12/12 05:13:45;;;;;;;56.63;23.70;;;;;;;3.90;100.00;98916.30;1779649;78;26486;-59
2023/12/12 05:16:12;;;;;;;68.50;23.85;;;;;;;3.90;100.00;98917.08;1780445;78;25475;-59
2023/12/12 05:18:42;;;;;;;57.67;22.27;;;;;;;3.90;100.00;98918.42;1748972;79;27365;-56
2023/12/12 05:21:11;;;;;;;65.92;23.22;;;;;;;3.90;100.00;98920.31;1789806;78;25485;-57
2023/12/12 05:23:41;;;;;;;49.67;21.30;;;;;;;3.90;100.00;98917.08;1783721;79;26032;-59
2023/12/12 05:26:11;;;;;;;58.95;20.85;;;;;;;3.89;100.00;98927.52;1788648;78;25663;-59
2023/12/12 05:28:40;;;;;;;;;;;;;;;3.88;100.00;98929.97;1789103;78;25760;-55
2023/12/12 05:31:07;;;;;;;;;;;;;;;3.89;100.00;98936.10;1798403;78;27661;-57
2023/12/12 05:33:37;;;;;;;65.65;22.25;;;;;;;3.85;100.00;98937.25;1788406;79;25468;-57
2023/12/12 05:36:08;;;;;;;68.05;22.00;;;;;;;3.86;100.00;98942.04;1790882;78;25592;-55
2023/12/12 05:38:36;;;;;;;75.28;22.60;;;;;;;3.85;100.00;98943.15;1790069;79;25659;-57
2023/12/12 05:41:06;;;;;;;41.42;20.92;;;;;;;3.84;100.00;98958.94;1779864;79;25782;-56
2023/12/12 05:43:34;;;;;;;57.00;21.97;;;;;;;3.84;100.00;98961.61;1786752;78;27182;-58
2023/12/12 05:46:01;;;;;;;54.63;22.17;;;;;;;3.83;100.00;98965.37;1789176;78;25479;-58
2023/12/12 05:48:31;;;;;;;49.80;22.48;;;;;;;3.82;100.00;98968.59;1784137;78;25837;-58
2023/12/12 05:51:01;;;;;;;57.67;23.35;;;;;;;3.83;100.00;98969.38;1788959;79;25987;-57
2023/12/12 05:53:31;;;;;;;50.05;21.65;;;;;;;3.84;100.00;98973.65;1789452;78;25617;-55
2023/12/12 05:56:01;;;;;;;45.28;21.73;;;;;;;3.87;100.00;98976.52;1793583;79;28309;-56
2023/12/12 05:58:28;;;;;;;;;;;;;;;3.89;100.00;98982.92;1792596;77;25807;-55
2023/12/12 06:00:55;;;;;;;49.35;20.55;;;;;;;3.90;100.00;98984.52;1787009;78;25411;-56
2023/12/12 06:03:25;;;;;;;42.03;19.70;;;;;;;3.88;100.00;98986.14;1793854;78;25532;-57
2023/12/12 06:05:54;;;;;;;59.58;22.80;;;;;;;3.89;100.00;98993.06;1792645;79;25540;-56
2023/12/12 06:08:21;;;;;;;45.20;20.00;;;;;;;3.88;100.00;98992.02;1776230;78;27413;-54
2023/12/12 06:10:54;;;;;;;43.02;19.92;;;;;;;3.89;100.00;98992.28;1792049;78;26018;-55
2023/12/12 06:13:24;;;;;;;46.68;21.33;;;;;;;3.92;100.00;99002.39;1789638;79;25495;-54
2023/12/12 06:15:53;;;;;;;40.17;20.32;;;;;;;3.92;100.00;99003.18;1786570;78;26682;-54
2023/12/12 06:18:23;;;;;;;;;;;;;;;3.92;100.00;99006.41;1799593;77;25555;-57
2023/12/12 06:20:52;;;;;;;40.48;19.00;;;;;;;3.92;100.00;99007.75;1794603;78;27323;-57
2023/12/12 06:23:22;;;;;;;34.53;18.23;;;;;;;3.91;100.00;99007.48;1789034;78;35377;-57
2023/12/12 06:25:52;;;;;;;43.20;19.48;;;;;;;3.91;100.00;99015.52;1781009;78;25431;-56
2023/12/12 06:28:19;;;;;;;38.00;18.57;;;;;;;3.92;100.00;99013.09;1779701;78;25924;-57
2023/12/12 06:30:48;;;;;;;39.13;18.50;;;;;;;3.91;100.00;99013.62;1774274;79;25450;-56
2023/12/12 06:33:18;;;;;;;39.80;19.92;;;;;;;3.92;100.00;99013.88;1789876;79;28441;-56
2023/12/12 06:35:48;;;;;;;40.03;19.82;;;;;;;3.93;100.00;99012.80;1794089;79;25423;-57
2023/12/12 06:38:18;;;;;;;41.48;19.77;;;;;;;3.95;100.00;99011.17;1797192;78;25385;-56
2023/12/12 06:40:48;;;;;;;37.40;18.92;;;;;;;3.95;100.00;99015.71;1789460;79;26279;-58
2023/12/12 06:43:19;;;;;;;39.60;19.37;;;;;;;3.97;100.00;99018.87;1787827;79;25608;-55
2023/12/12 06:45:46;;;;;;;36.35;18.23;;;;;;;3.97;100.00;99023.70;1791572;78;27453;-56
2023/12/12 06:48:17;;;;;;;39.53;19.17;;;;;;;3.97;100.00;99026.37;1789380;79;26082;-56
2023/12/12 06:50:48;;;;;;;45.03;20.55;;;;;;;3.98;100.00;99029.28;1795703;78;25437;-57
2023/12/12 06:53:18;;;;;;;42.10;21.40;;;;;;;3.98;100.00;99033.30;1785790;78;26638;-56
2023/12/12 06:55:48;;;;;;;41.68;20.30;;;;;;;3.99;100.00;99038.91;1791312;79;25523;-57
2023/12/12 06:58:18;;;;;;;38.55;20.60;;;;;;;4.00;100.00;99044.53;1785169;78;28006;-57
2023/12/12 07:00:49;;;;;;;41.60;20.60;;;;;;;4.01;100.00;99043.97;1792193;78;25480;-58
2023/12/12 07:03:18;;;;;;;45.00;21.15;;;;;;;4.01;100.00;99043.42;1756785;79;25586;-58
2023/12/12 07:05:46;;;;;;;48.30;23.12;;;;;;;4.02;100.00;99049.55;1794096;78;27129;-58
2023/12/12 07:08:17;;;;;;;48.10;24.15;;;;;;;4.02;100.00;99048.22;1793387;78;25395;-56
2023/12/12 07:10:48;;;;;;;43.78;22.87;;;;;;;4.03;100.00;99051.16;1787537;79;28392;-58
2023/12/12 07:13:18;;;;;;;47.58;24.10;;;;;;;4.04;100.00;99054.09;1784601;78;26016;-57
2023/12/12 07:15:45;;;;;;;48.50;23.70;;;;;;;4.06;100.00;99053.24;1797428;78;25432;-60
2023/12/12 07:18:15;;;;;;;50.95;24.57;;;;;;;4.07;100.00;99050.27;1781360;78;26594;-57
2023/12/12 07:20:44;;;;;;;51.33;24.23;;;;;;;4.09;100.00;99056.12;1781383;78;25980;-57
2023/12/12 07:23:15;;;;;;;47.53;23.18;;;;;;;4.12;100.00;99060.09;1771504;79;28039;-59
2023/12/12 07:25:46;;;;;;;49.03;25.10;;;;;;;4.15;100.00;99060.82;1790958;78;25833;-53
2023/12/12 07:28:16;;;;;;;54.27;26.60;;;;;;;4.18;100.00;99063.47;1790494;77;25547;-57
2023/12/12 07:30:44;;;;;;;47.50;24.18;;;;;;;4.20;100.00;99064.74;1788983;79;26637;-59
2023/12/12 07:33:14;;;;;;;48.92;24.90;;;;;;;4.22;100.00;99065.79;1791236;78;25510;-57
2023/12/12 07:35:44;;;;;;;52.08;23.62;;;;;;;4.24;100.00;99071.63;1782673;78;27326;-58
2023/12/12 07:38:12;;;;;;;47.38;22.58;;;;;;;4.27;100.00;99072.38;1789706;78;25499;-57
2023/12/12 07:40:41;;;;;;;49.45;24.07;;;;;;;4.30;100.00;99076.59;1757061;79;25634;-59
2023/12/12 07:43:12;;;;;;;52.25;24.32;;;;;;;4.34;100.00;99082.15;1789298;78;27711;-58
2023/12/12 07:45:39;;;;;;;52.65;25.48;;;;;;;4.37;100.00;99082.90;1753345;79;25701;-59
2023/12/12 07:48:08;;;;;;;59.05;28.17;;;;;;;4.41;100.00;99087.11;1793062;78;27643;-59
2023/12/12 07:50:40;;;;;;;51.58;26.35;;;;;;;4.42;100.00;99078.00;1797914;78;26018;-58
2023/12/12 07:53:06;;;;;;;56.70;26.42;;;;;;;4.44;100.00;99090.02;1782180;78;25673;-57
2023/12/12 07:55:33;;;;;;;50.15;24.98;;;;;;;4.47;100.00;99090.73;1786290;78;25937;-57
2023/12/12 07:58:00;;;;;;;53.10;24.87;;;;;;;4.47;100.00;99088.06;1778300;78;25851;-57
2023/12/12 08:00:27;;;;;;;53.87;25.77;;;;;;;4.51;100.00;99094.16;1789435;79;27477;-58
2023/12/12 08:02:54;;;;;;;44.10;23.85;;;;;;;4.52;100.00;99090.41;1762550;79;25578;-58
2023/12/12 08:05:21;;;;;;;55.63;25.08;;;;;;;4.55;100.00;99096.52;1782835;79;25650;-59
2023/12/12 08:07:51;;;;;;;50.90;24.02;;;;;;;4.56;100.00;99098.86;1786298;79;26012;-60
2023/12/12 08:10:17;;;;;;;51.55;23.98;;;;;;;4.59;100.00;99102.84;1790823;78;25549;-60
2023/12/12 08:12:45;;;;;;;43.40;22.02;;;;;;;4.64;100.00;99104.88;1790263;79;28402;-60
2023/12/12 08:15:13;;;;;;;45.40;22.45;;;;;;;4.67;100.00;99108.30;1783886;78;25733;-60
2023/12/12 08:17:40;;;;;;;44.00;22.60;;;;;;;4.69;100.00;99118.72;1777323;78;25498;-60
2023/12/12 08:20:10;;;;;;;44.83;21.15;;;;;;;4.71;100.00;99112.51;1787036;79;26765;-59
2023/12/12 08:22:37;;;;;;;42.78;21.97;;;;;;;4.72;100.00;99126.16;1787509;79;25853;-59
2023/12/12 08:25:07;;;;;;;49.42;23.20;;;;;;;4.73;100.00;99119.70;1787147;78;27493;-61
2023/12/12 08:27:34;;;;;;;44.13;22.02;;;;;;;4.75;100.00;99127.44;1795960;78;25462;-60
2023/12/12 08:30:13;;;;;;;39.23;20.43;;;;;;;4.75;100.00;99127.44;1785805;79;25777;-61
2023/12/12 08:32:39;;;;;;;41.73;20.52;;;;;;;4.76;100.00;99128.48;1791464;79;25622;-60
2023/12/12 08:35:07;;;;;;;40.45;21.42;;;;;;;4.76;100.00;99129.82;1772027;78;25772;-60
2023/12/12 08:37:34;;;;;;;46.20;22.25;;;;;;;4.77;100.00;99133.31;1783405;78;27465;-60
2023/12/12 08:40:01;;;;;;;44.27;21.33;;;;;;;4.81;100.00;99131.61;1792007;78;25612;-59
2023/12/12 08:42:28;;;;;;;42.95;21.07;;;;;;;4.83;100.00;99134.78;1784632;79;25815;-59
2023/12/12 08:44:55;;;;;;;39.48;21.70;;;;;;;4.84;100.00;99141.19;1795202;78;26563;-59
2023/12/12 08:47:22;;;;;;;44.53;21.85;;;;;;;4.83;100.00;99133.44;1790817;78;25402;-59
2023/12/12 08:49:49;;;;;;;37.78;20.95;;;;;;;4.88;100.00;99139.25;1787680;79;28494;-59
2023/12/12 08:52:16;;;;;;;38.73;20.43;;;;;;;4.89;100.00;99151.54;1757811;78;25871;-58
2023/12/12 08:54:46;;;;;;;36.98;19.82;;;;;;;4.91;100.00;99156.08;1781573;79;25858;-58
2023/12/12 08:57:15;;;;;;;41.80;21.30;;;;;;;4.93;100.00;99158.69;1781536;79;26621;-59
2023/12/12 08:59:41;;;;;;;37.33;19.90;;;;;;;4.94;100.00;99156.27;1787631;78;25793;-59
2023/12/12 09:02:08;;;;;;;36.20;20.60;;;;;;;4.96;100.00;99164.02;1780328;78;28496;-61
2023/12/12 09:04:37;;;;;;;45.12;20.05;;;;;;;4.98;100.00;99171.20;1783640;79;25754;-60
2023/12/12 09:07:04;;;;;;;40.15;20.62;;;;;;;5.00;100.00;99178.39;1774014;78;25717;-62
2023/12/12 09:09:31;;;;;;;43.13;21.57;;;;;;;4.98;100.00;99176.56;1788554;78;26555;-62
2023/12/12 09:12:03;;;;;;;40.20;21.10;;;;;;;4.99;100.00;99184.31;1783952;78;25573;-63
2023/12/12 09:14:30;;;;;;;39.65;20.35;;;;;;;4.99;100.00;99187.55;1782686;78;27753;-63
2023/12/12 09:16:57;;;;;;;40.83;20.60;;;;;;;4.98;100.00;99185.94;1791599;78;25982;-64
2023/12/12 09:19:23;;;;;;;49.05;21.65;;;;;;;4.97;100.00;99186.50;1794635;79;25560;-62
2023/12/12 09:21:51;;;;;;;46.92;21.10;;;;;;;4.96;100.00;99183.56;1791408;78;26591;-62
2023/12/12 09:24:18;;;;;;;45.92;21.50;;;;;;;4.94;100.00;99183.06;1793209;79;25732;-62
2023/12/12 09:26:45;;;;;;;52.08;23.32;;;;;;;4.94;100.00;99182.25;1788805;78;28356;-62
2023/12/12 09:29:12;;;;;;;45.67;21.20;;;;;;;4.94;100.00;99190.30;1782023;79;25634;-62
2023/12/12 09:31:39;;;;;;;46.95;21.68;;;;;;;4.95;100.00;99185.19;1790507;79;25877;-62
2023/12/12 09:34:06;;;;;;;49.33;22.10;;;;;;;4.94;100.00;99181.73;1789341;78;25886;-63
2023/12/12 09:36:33;;;;;;;44.25;22.17;;;;;;;4.95;100.00;99180.63;1787822;78;25478;-62
2023/12/12 09:39:00;;;;;;;50.88;22.75;;;;;;;4.97;100.00;99183.00;1765903;79;28355;-62
2023/12/12 09:41:27;;;;;;;43.85;21.00;;;;;;;4.96;100.00;99186.80;1793719;79;25942;-62
2023/12/12 09:43:54;;;;;;;40.33;20.52;;;;;;;4.97;100.00;99184.34;1781619;78;25539;-62
2023/12/12 09:46:21;;;;;;;44.13;22.58;;;;;;;4.97;100.00;99187.02;1792649;78;26755;-62
2023/12/12 09:48:50;;;;;;;43.52;21.00;;;;;;;4.97;100.00;99190.52;1789591;79;25813;-61
2023/12/12 09:51:17;;;;;;;40.97;21.13;;;;;;;4.98;100.00;99192.64;1789001;78;27468;-62
2023/12/12 09:53:48;;;;;;;43.78;21.62;;;;;;;4.94;100.00;99201.83;1785763;78;25397;-62
2023/12/12 09:56:17;;;;;;;38.45;20.72;;;;;;;4.97;100.00;99204.44;1778952;78;25455;-62
2023/12/12 09:58:49;;;;;;;35.13;19.92;;;;;;;4.94;100.00;99209.87;1795260;78;26097;-62
2023/12/12 10:01:17;;;;;;;38.65;19.75;;;;;;;4.92;100.00;99208.56;1795195;78;25848;-62
2023/12/12 10:03:44;;;;;;;37.35;18.90;;;;;;;4.89;100.00;99222.55;1800579;78;27319;-61
2023/12/12 10:06:12;;;;;;;36.23;18.65;;;;;;;4.85;100.00;99221.02;1788895;79;25468;-61
2023/12/12 10:08:40;;;;;;;33.65;17.50;;;;;;;4.82;100.00;99222.41;1791116;78;25847;-61
2023/12/12 10:11:10;;;;;;;33.28;17.48;;;;;;;4.82;100.00;99225.65;1791324;79;26443;-61
2023/12/12 10:13:57;;;;;;;33.80;17.67;;;;;;;4.81;100.00;99229.41;1784144;78;25438;-62
2023/12/12 10:16:25;;;;;;;31.00;16.23;;;;;;;4.79;100.00;99240.97;1792746;79;27324;-60
2023/12/12 10:18:53;;;;;;;28.02;14.95;;;;;;;4.75;100.00;99246.13;1785465;78;25728;-61
2023/12/12 10:21:26;;;;;;;27.20;15.03;;;;;;;4.75;100.00;99253.34;1794894;78;25496;-62
2023/12/12 10:23:53;;;;;;;28.32;16.17;;;;;;;4.70;100.00;99251.58;1792290;78;26574;-61
2023/12/12 10:26:31;;;;;;;26.42;14.70;;;;;;;4.67;100.00;99252.95;1787535;79;25754;-61
2023/12/12 10:29:00;;;;;;;28.85;15.23;;;;;;;4.64;100.00;99255.42;1777060;78;26941;-62
2023/12/12 10:31:28;;;;;;;27.42;15.55;;;;;;;4.62;100.00;99259.73;1790628;78;25525;-60
2023/12/12 10:33:56;;;;;;;25.02;14.33;;;;;;;4.62;100.00;99264.30;1787915;79;25436;-60
2023/12/12 10:36:27;;;;;;;26.30;13.50;;;;;;;4.58;100.00;99264.09;1794899;79;26479;-61
2023/12/12 10:38:54;;;;;;;24.47;14.40;;;;;;;4.55;100.00;99266.02;1780821;79;25440;-63
2023/12/12 10:41:21;;;;;;;20.68;12.60;;;;;;;4.52;100.00;99271.95;1780062;79;27611;-62
2023/12/12 10:43:48;;;;;;;26.60;14.15;;;;;;;4.48;100.00;99279.00;1789354;79;25838;-62
2023/12/12 10:46:17;;;;;;;23.75;13.05;;;;;;;4.45;100.00;99277.69;1792405;79;25594;-61
2023/12/12 10:48:47;;;;;;;22.32;12.25;;;;;;;4.43;100.00;99282.55;1780329;78;25783;-60
2023/12/12 10:51:19;;;;;;;21.10;11.95;;;;;;;4.38;100.00;99275.94;1794912;79;25851;-62
2023/12/12 10:53:51;;;;;;;19.02;11.33;;;;;;;4.36;100.00;99285.33;1786131;78;27333;-62
2023/12/12 10:56:20;;;;;;;20.43;11.57;;;;;;;4.34;100.00;99282.16;1788557;78;25794;-64
2023/12/12 10:58:51;;;;;;;18.98;11.05;;;;;;;4.29;100.00;99285.17;1793486;78;25709;-63
2023/12/12 11:01:18;;;;;;;20.65;11.57;;;;;;;4.26;100.00;99284.41;1784312;79;26126;-62
2023/12/12 11:03:46;;;;;;;24.55;12.07;;;;;;;4.24;100.00;99284.44;1788598;79;25735;-61
2023/12/12 11:06:12;;;;;;;21.80;12.20;;;;;;;4.21;100.00;99283.70;1779866;78;27311;-62
2023/12/12 11:08:42;;;;;;;28.90;13.98;;;;;;;4.21;100.00;99290.40;1783237;78;25978;-60
2023/12/12 11:11:13;;;;;;;22.77;13.80;;;;;;;4.19;100.00;99295.22;1780279;79;25808;-63
2023/12/12 11:13:43;;;;;;;22.17;13.15;;;;;;;4.18;100.00;99299.00;1755506;78;25680;-62
2023/12/12 11:16:11;;;;;;;19.92;12.78;;;;;;;4.18;100.00;99304.36;1791059;78;25843;-62
2023/12/12 11:18:39;;;;;;;19.60;11.25;;;;;;;4.15;100.00;99310.28;1790813;78;27298;-62
2023/12/12 11:21:07;;;;;;;20.88;12.80;;;;;;;4.11;100.00;99307.39;1756855;78;25397;-61
2023/12/12 11:23:53;;;;;;;18.42;12.18;;;;;;;4.08;100.00;99310.64;1795594;78;25856;-61
2023/12/12 11:26:21;;;;;;;20.80;12.10;;;;;;;4.06;100.00;99312.27;1798189;78;26624;-63
2023/12/12 11:28:49;;;;;;;21.33;12.28;;;;;;;4.03;100.00;99310.16;1790392;79;25656;-62
2023/12/12 11:31:27;;;;;;;19.35;12.05;;;;;;;4.03;100.00;99308.04;1758941;78;27988;-63